Time;durP1;ratioP1;P1;durP2;ratioP2;P2;SDS_P1;SDS_P2;PMS_P1;PMS_P2;Temp;Humidity;BMP_temperature;BMP_pressure;BME280_temperature;BME280_humidity;BME280_pressure;Samples;Min_cycle;Max_cycle;Signal;HPM_P1;HPM_P2
2023/01/11 00:00:15;;;;;;;2.85;1.00;;;;;;;10.37;71.02;100685.22;5103097;28;20050;-64
2023/01/11 00:02:44;;;;;;;2.72;1.63;;;;;;;10.36;71.26;100677.38;5106579;28;20111;-68
2023/01/11 00:05:12;;;;;;;2.40;0.85;;;;;;;10.36;71.27;100694.31;5104858;28;20049;-66
2023/01/11 00:07:40;;;;;;;5.25;0.98;;;;;;;10.35;71.36;100675.75;5105453;28;20075;-67
2023/01/11 00:10:09;;;;;;;1.75;0.73;;;;;;;10.35;71.35;100691.84;5108042;28;20108;-67
2023/01/11 00:12:38;;;;;;;2.20;0.82;;;;;;;10.37;71.72;100685.22;5100107;28;20044;-69
2023/01/11 00:15:07;;;;;;;2.28;1.45;;;;;;;10.38;71.26;100684.19;5101858;28;20498;-68
2023/01/11 00:17:35;;;;;;;1.95;1.00;;;;;;;10.38;71.21;100675.28;5105222;28;20050;-68
2023/01/11 00:20:03;;;;;;;2.40;0.90;;;;;;;10.39;71.39;100672.38;5102905;28;20047;-67
2023/01/11 00:22:31;;;;;;;1.35;0.80;;;;;;;10.39;70.98;100672.38;5104334;28;20062;-67
2023/01/11 00:24:59;;;;;;;2.10;0.80;;;;;;;10.38;71.33;100669.91;5103919;28;20056;-68
2023/01/11 00:27:27;;;;;;;1.13;0.90;;;;;;;10.40;71.22;100674.00;5105201;28;20087;-68
2023/01/11 00:29:56;;;;;;;1.33;0.80;;;;;;;10.41;71.30;100667.56;5093449;28;20056;-69
2023/01/11 00:32:24;;;;;;;1.10;0.80;;;;;;;10.44;71.35;100666.31;5105018;28;20056;-67
2023/01/11 00:34:51;;;;;;;1.70;0.90;;;;;;;10.42;71.88;100663.84;5101436;28;20497;-67
2023/01/11 00:37:20;;;;;;;1.52;0.73;;;;;;;10.42;71.48;100671.91;5105431;28;20044;-68
2023/01/11 00:39:47;;;;;;;0.90;0.57;;;;;;;10.42;71.26;100669.22;5107298;28;20372;-69
2023/01/11 00:48:00;;;;;;;1.88;0.70;;;;;;;10.42;71.92;100660.34;5053050;28;20079;-66
2023/01/11 00:50:30;;;;;;;1.05;0.80;;;;;;;10.43;72.44;100661.97;5110478;28;20459;-68
2023/01/11 00:52:59;;;;;;;2.58;1.00;;;;;;;10.43;72.62;100653.91;5106479;28;20057;-68
2023/01/11 00:55:27;;;;;;;1.55;0.70;;;;;;;10.43;71.91;100653.91;5102715;28;20108;-68
2023/01/11 00:57:55;;;;;;;1.38;0.82;;;;;;;10.43;72.61;100640.50;5104704;28;20048;-67
2023/01/11 01:00:24;;;;;;;0.60;0.52;;;;;;;10.42;72.26;100647.72;5100280;28;20071;-68
2023/01/11 01:02:53;;;;;;;1.15;0.70;;;;;;;10.35;72.58;100630.06;5106290;28;20540;-68
2023/01/11 01:05:21;;;;;;;1.65;0.70;;;;;;;10.41;72.04;100656.00;5114685;28;20112;-67
2023/01/11 01:07:49;;;;;;;0.80;0.60;;;;;;;10.43;71.78;100644.00;5112101;28;20492;-68
2023/01/11 01:10:18;;;;;;;1.77;0.93;;;;;;;10.44;72.52;100637.56;5103884;28;20089;-68
2023/01/11 01:15:33;;;;;;;0.82;0.60;;;;;;;10.44;72.25;100644.81;5094794;28;20481;-68
2023/01/11 01:18:01;;;;;;;0.98;0.60;;;;;;;10.43;71.98;100643.16;5103868;28;20134;-68
2023/01/11 01:20:29;;;;;;;1.88;0.93;;;;;;;10.44;72.11;100639.44;5102406;28;20139;-66
2023/01/11 01:22:57;;;;;;;1.52;0.90;;;;;;;10.44;72.09;100644.81;5097823;28;20198;-65
2023/01/11 01:25:25;;;;;;;0.95;0.80;;;;;;;10.44;72.28;100650.19;5098141;28;20052;-68
2023/01/11 01:27:53;;;;;;;1.33;0.57;;;;;;;10.44;71.90;100652.88;5100555;28;20046;-68
2023/01/11 01:30:20;;;;;;;2.33;1.05;;;;;;;10.43;72.26;100652.06;5102620;28;20047;-68
2023/01/11 01:32:49;;;;;;;1.75;0.68;;;;;;;10.44;72.31;100653.69;5108210;28;20083;-68
2023/01/11 01:35:17;;;;;;;0.68;0.50;;;;;;;10.44;72.38;100651.00;5104554;28;20048;-68
2023/01/11 01:37:45;;;;;;;2.90;0.80;;;;;;;10.38;71.90;100643.06;5101250;28;20139;-63
2023/01/11 01:40:13;;;;;;;0.68;0.55;;;;;;;10.45;72.11;100643.75;5104993;28;20052;-67
2023/01/11 01:42:41;;;;;;;0.90;0.77;;;;;;;10.45;72.75;100646.44;5103786;28;20131;-69
2023/01/11 01:45:22;;;;;;;4.13;0.90;;;;;;;10.44;72.63;100648.31;5102263;28;20602;-69
2023/01/11 01:48:02;;;;;;;1.33;0.85;;;;;;;10.46;72.68;100642.72;5097972;28;20416;-69
2023/01/11 01:50:35;;;;;;;0.85;0.70;;;;;;;10.44;72.46;100642.94;5079209;28;20121;-70
2023/01/11 01:53:08;;;;;;;4.03;1.15;;;;;;;10.46;72.21;100637.34;5080427;28;20111;-69
2023/01/11 01:55:41;;;;;;;1.55;1.05;;;;;;;10.47;72.64;100640.84;5083738;28;20040;-69
2023/01/11 01:58:13;;;;;;;2.38;0.77;;;;;;;10.46;72.42;100642.72;5074788;28;20163;-67
2023/01/11 02:00:42;;;;;;;0.75;0.70;;;;;;;10.46;72.30;100637.34;5086587;28;20041;-67
2023/01/11 02:03:16;;;;;;;0.93;0.60;;;;;;;10.47;72.57;100649.72;5077668;28;20130;-67
2023/01/11 02:05:44;;;;;;;0.88;0.60;;;;;;;10.48;72.40;100637.13;5073620;28;20068;-67
2023/01/11 02:08:17;;;;;;;2.00;0.70;;;;;;;10.47;72.73;100640.84;5079791;28;20047;-67
2023/01/11 02:10:45;;;;;;;1.83;0.98;;;;;;;10.49;72.62;100638.75;5087006;28;20048;-69
2023/01/11 02:13:14;;;;;;;1.27;0.85;;;;;;;10.48;72.57;100642.50;5082674;28;20040;-68
2023/01/11 02:15:41;;;;;;;2.20;1.25;;;;;;;10.48;72.87;100637.94;5077915;28;20052;-67
2023/01/11 02:18:12;;;;;;;1.58;1.00;;;;;;;10.49;72.63;100644.94;5079976;28;20048;-67
2023/01/11 02:21:00;;;;;;;0.77;0.77;;;;;;;10.50;72.88;100641.22;5080109;28;20075;-68
2023/01/11 02:23:52;;;;;;;1.92;1.20;;;;;;;10.51;72.89;100642.03;5078607;28;20051;-68
2023/01/11 02:26:45;;;;;;;0.70;0.50;;;;;;;10.51;72.57;100639.34;5074796;28;20075;-66
2023/01/11 02:29:23;;;;;;;2.22;0.95;;;;;;;10.47;72.85;100624.72;5075386;28;20044;-68
2023/01/11 02:32:00;;;;;;;1.40;0.90;;;;;;;10.50;72.65;100625.09;5072829;28;20061;-67
2023/01/11 02:34:40;;;;;;;1.17;0.68;;;;;;;10.49;73.01;100628.00;5082743;28;20066;-67
2023/01/11 02:37:17;;;;;;;1.65;0.98;;;;;;;10.50;73.00;100630.47;5075959;28;20045;-68
2023/01/11 02:39:49;;;;;;;;;;;;;;;10.50;72.93;100627.78;5081717;28;20079;-68
2023/01/11 02:45:25;;;;;;;1.17;0.70;;;;;;;10.52;72.92;100625.69;5076312;28;20516;-70
2023/01/11 02:47:59;;;;;;;3.55;0.70;;;;;;;10.51;72.89;100613.31;5075437;28;20143;-67
2023/01/11 02:50:32;;;;;;;1.05;0.70;;;;;;;10.52;72.98;100614.94;5071294;28;20041;-67
2023/01/11 02:53:05;;;;;;;1.65;0.65;;;;;;;10.53;73.07;100607.72;5074145;28;20498;-70
2023/01/11 02:55:38;;;;;;;1.27;0.73;;;;;;;10.53;73.24;100610.38;5078968;28;20045;-69
2023/01/11 02:58:08;;;;;;;0.47;0.47;;;;;;;10.51;73.32;100609.78;5070720;28;20160;-68
2023/01/11 03:00:39;;;;;;;1.70;1.13;;;;;;;10.52;73.28;100614.94;5068324;28;20363;-69
2023/01/11 03:03:12;;;;;;;1.77;0.80;;;;;;;10.53;73.36;100607.72;5060016;28;20044;-69
2023/01/11 03:05:46;;;;;;;0.95;0.60;;;;;;;10.54;73.21;100602.09;5065581;28;20490;-69
2023/01/11 03:08:43;;;;;;;1.90;0.68;;;;;;;10.53;73.39;100605.00;5069450;28;20040;-70
2023/01/11 03:12:50;;;;;;;1.25;0.90;;;;;;;10.53;73.20;100607.72;5063008;28;20102;-69
2023/01/11 03:14:09;;;;;;;0.73;0.63;;;;;;;10.54;73.30;100596.72;5065134;28;20067;-69
2023/01/11 03:16:47;;;;;;;1.10;0.90;;;;;;;10.55;73.44;100605.59;5073589;28;20044;-69
2023/01/11 03:19:25;;;;;;;1.05;0.70;;;;;;;10.55;73.36;100597.56;5069056;28;20131;-69
2023/01/11 03:22:01;;;;;;;2.40;1.20;;;;;;;10.55;73.36;100602.94;5068880;28;20050;-68
2023/01/11 03:24:33;;;;;;;1.80;0.77;;;;;;;10.55;73.57;100613.66;5069547;28;20045;-69
2023/01/11 03:27:14;;;;;;;2.08;0.68;;;;;;;10.55;73.38;100601.06;5062874;28;20644;-69
2023/01/11 03:29:49;;;;;;;3.25;0.90;;;;;;;10.57;73.63;100606.19;5061655;28;20059;-69
2023/01/11 03:32:25;;;;;;;0.88;0.70;;;;;;;10.57;73.39;100607.03;5069257;28;20048;-67
2023/01/11 03:35:04;;;;;;;5.50;0.93;;;;;;;10.58;73.28;100599.78;5066349;28;20112;-69
2023/01/11 03:37:37;;;;;;;0.52;0.50;;;;;;;10.57;73.56;100609.72;5073075;28;20124;-69
2023/01/11 03:40:10;;;;;;;1.40;0.75;;;;;;;10.57;73.50;100607.03;5064424;28;20045;-69
2023/01/11 03:43:09;;;;;;;2.13;0.63;;;;;;;10.57;73.50;100601.66;5063212;28;20041;-69
2023/01/11 03:45:33;;;;;;;0.80;0.60;;;;;;;10.59;73.37;100604.09;5062998;28;20045;-69
2023/01/11 03:48:04;;;;;;;0.40;0.30;;;;;;;10.59;73.50;100596.03;5069839;28;20044;-70
2023/01/11 03:50:33;;;;;;;0.45;0.45;;;;;;;10.60;73.43;100589.63;5069597;28;20062;-69
2023/01/11 03:53:05;;;;;;;1.20;0.60;;;;;;;10.60;73.53;100600.38;5067335;28;20048;-69
2023/01/11 03:55:37;;;;;;;0.90;0.70;;;;;;;10.60;73.52;100593.13;5058245;28;20045;-69
2023/01/11 03:58:07;;;;;;;0.50;0.50;;;;;;;10.59;73.39;100593.34;5063953;28;20037;-69
2023/01/11 04:00:36;;;;;;;1.23;0.90;;;;;;;10.63;73.44;100610.66;5062891;28;20055;-69
2023/01/11 04:03:08;;;;;;;0.45;0.45;;;;;;;10.60;73.87;100600.38;5065482;28;20053;-69
2023/01/11 04:05:38;;;;;;;0.85;0.55;;;;;;;10.61;73.65;100610.91;5059746;28;20049;-69
2023/01/11 04:08:06;;;;;;;0.82;0.55;;;;;;;10.62;73.60;100615.22;5063041;28;20106;-69
2023/01/11 04:10:33;;;;;;;0.75;0.73;;;;;;;10.62;73.61;100603.66;5060076;28;20098;-69
2023/01/11 04:13:01;;;;;;;0.40;0.38;;;;;;;10.62;73.71;100614.41;5062605;28;20049;-69
2023/01/11 04:15:30;;;;;;;0.77;0.65;;;;;;;10.55;73.69;100600.22;5067188;28;20068;-69
2023/01/11 04:18:03;;;;;;;1.02;0.57;;;;;;;10.64;73.78;100626.56;5051929;28;20203;-69
2023/01/11 04:20:33;;;;;;;0.40;0.40;;;;;;;10.65;73.89;100622.00;5076116;28;20540;-69
2023/01/11 04:23:01;;;;;;;0.45;0.30;;;;;;;10.64;73.78;100626.56;5061985;28;20063;-68
2023/01/11 04:25:28;;;;;;;0.68;0.50;;;;;;;10.65;73.85;100628.22;5060975;28;20071;-69
2023/01/11 04:27:56;;;;;;;1.10;0.57;;;;;;;10.65;73.89;100617.44;5053689;28;20055;-69
2023/01/11 04:30:24;;;;;;;0.50;0.50;;;;;;;10.66;73.96;100618.28;5069289;28;20051;-69
2023/01/11 04:32:52;;;;;;;0.45;0.45;;;;;;;10.65;74.24;100624.69;5058405;28;20487;-69
2023/01/11 04:35:19;;;;;;;0.98;0.50;;;;;;;10.66;73.96;100621.78;5062484;28;20056;-69
2023/01/11 04:37:50;;;;;;;0.80;0.40;;;;;;;10.67;74.02;100631.47;5059334;28;20051;-68
2023/01/11 04:40:17;;;;;;;0.40;0.40;;;;;;;10.67;74.14;100631.47;5073254;28;20052;-69
2023/01/11 04:42:45;;;;;;;0.55;0.40;;;;;;;10.67;74.11;100628.81;5079765;28;20049;-69
2023/01/11 04:45:13;;;;;;;0.98;0.60;;;;;;;10.66;73.87;100629.84;5064420;28;20059;-69
2023/01/11 04:47:40;;;;;;;0.38;0.30;;;;;;;10.67;74.01;100633.34;5056978;28;20148;-69
2023/01/11 04:50:10;;;;;;;0.73;0.50;;;;;;;10.67;74.04;100636.03;5059430;28;20049;-68
2023/01/11 04:52:40;;;;;;;0.52;0.40;;;;;;;10.66;73.91;100629.84;5055807;28;20113;-68
2023/01/11 04:55:09;;;;;;;0.30;0.30;;;;;;;10.66;73.90;100632.53;5063889;28;20045;-68
2023/01/11 04:57:37;;;;;;;0.93;0.43;;;;;;;10.68;73.89;100626.94;5076586;28;20072;-68
2023/01/11 05:00:07;;;;;;;0.50;0.50;;;;;;;10.76;73.73;100632.00;5061641;28;20045;-65
2023/01/11 05:02:35;;;;;;;1.00;0.30;;;;;;;10.72;73.89;100631.63;5066704;28;20048;-64
2023/01/11 05:05:03;;;;;;;3.35;0.40;;;;;;;10.63;74.06;100627.63;5066150;28;20057;-66
2023/01/11 05:07:31;;;;;;;2.83;0.60;;;;;;;10.70;74.15;100638.28;5061221;28;20051;-65
2023/01/11 05:09:58;;;;;;;0.45;0.40;;;;;;;10.71;74.10;100653.34;5052965;28;20049;-64
2023/01/11 05:12:27;;;;;;;1.63;0.40;;;;;;;10.72;74.08;100641.56;5070858;28;20502;-66
2023/01/11 05:14:56;;;;;;;1.17;0.40;;;;;;;10.72;74.65;100636.19;5059454;28;20385;-68
2023/01/11 05:17:23;;;;;;;0.43;0.40;;;;;;;10.74;74.83;100667.16;5064418;28;20090;-67
2023/01/11 05:19:51;;;;;;;0.40;0.40;;;;;;;10.74;75.12;100652.91;5059790;28;20073;-67
2023/01/11 05:22:19;;;;;;;1.65;0.30;;;;;;;10.76;75.27;100654.31;5066713;28;20105;-67
2023/01/11 05:24:46;;;;;;;1.05;0.50;;;;;;;10.77;75.69;100655.13;5065393;28;20065;-68
2023/01/11 05:27:14;;;;;;;3.63;0.50;;;;;;;10.76;75.79;100665.06;5069636;28;20056;-67
2023/01/11 05:29:44;;;;;;;1.02;0.50;;;;;;;10.77;75.92;100663.19;5068263;28;20105;-68
2023/01/11 05:32:12;;;;;;;2.40;0.80;;;;;;;10.67;76.07;100650.31;5063107;28;20323;-68
2023/01/11 05:34:39;;;;;;;1.67;0.50;;;;;;;10.78;76.01;100675.59;5071450;28;20053;-68
2023/01/11 05:37:07;;;;;;;1.75;0.77;;;;;;;10.78;76.15;100664.84;5061429;28;20049;-68
2023/01/11 05:39:35;;;;;;;1.58;0.90;;;;;;;10.78;76.14;100654.09;5075345;28;20050;-68
2023/01/11 05:42:02;;;;;;;1.63;0.80;;;;;;;10.79;76.13;100666.47;5061678;28;20131;-68
2023/01/11 05:47:28;;;;;;;1.77;0.70;;;;;;;10.80;75.96;100672.69;5012612;28;20069;-65
2023/01/11 05:49:56;;;;;;;1.60;1.05;;;;;;;10.80;76.00;100676.19;5020070;28;20073;-70
2023/01/11 05:52:24;;;;;;;2.22;0.70;;;;;;;10.80;75.94;100669.97;5008141;28;20401;-67
2023/01/11 05:54:51;;;;;;;3.65;1.30;;;;;;;10.79;75.79;100655.72;5014839;28;20621;-67
2023/01/11 05:57:19;;;;;;;2.72;0.85;;;;;;;10.80;75.92;100678.03;5011087;28;20057;-66
2023/01/11 05:59:47;;;;;;;2.30;1.02;;;;;;;10.80;75.85;100676.19;5014356;28;20117;-67
2023/01/11 06:02:15;;;;;;;2.75;1.08;;;;;;;10.79;76.15;100666.47;5015068;28;20053;-68
2023/01/11 06:04:44;;;;;;;2.08;1.10;;;;;;;10.80;75.82;100678.03;5011028;28;20112;-65
2023/01/11 06:07:12;;;;;;;2.83;1.02;;;;;;;10.80;75.75;100678.03;5009109;28;20145;-67
2023/01/11 06:09:39;;;;;;;2.10;1.10;;;;;;;10.81;75.89;100687.75;5012025;28;20043;-67
2023/01/11 06:12:07;;;;;;;1.50;1.13;;;;;;;10.79;75.74;100681.78;5015690;28;20113;-68
2023/01/11 06:14:35;;;;;;;1.50;1.15;;;;;;;10.80;76.17;100688.81;5011669;28;20557;-67
2023/01/11 06:17:04;;;;;;;4.22;1.52;;;;;;;10.79;76.01;100700.59;5010979;28;20109;-66
2023/01/11 06:19:32;;;;;;;5.57;2.50;;;;;;;10.79;76.22;100696.03;5014203;28;20072;-70
2023/01/11 06:22:01;;;;;;;3.83;1.52;;;;;;;10.81;76.19;100707.41;5040402;28;20055;-68
2023/01/11 06:24:29;;;;;;;3.22;1.73;;;;;;;10.82;76.61;100708.22;5061163;28;20075;-67
2023/01/11 06:26:57;;;;;;;4.68;1.80;;;;;;;10.83;76.17;100715.22;5059201;28;20448;-69
2023/01/11 06:29:25;;;;;;;5.85;2.50;;;;;;;10.81;76.45;100709.25;5066470;28;20203;-68
2023/01/11 06:31:52;;;;;;;3.75;1.60;;;;;;;10.82;76.22;100722.47;5059189;28;20059;-67
2023/01/11 06:34:20;;;;;;;9.25;2.10;;;;;;;10.84;76.29;100733.81;5080950;28;20076;-67
2023/01/11 06:36:48;;;;;;;4.13;1.90;;;;;;;10.84;76.20;100735.69;5067440;28;20063;-67
2023/01/11 06:39:17;;;;;;;6.30;2.00;;;;;;;10.83;76.03;100736.75;4720166;28;10001039;-68
2023/01/11 06:41:45;;;;;;;5.43;2.03;;;;;;;10.83;76.12;100739.44;5065057;28;20204;-66
2023/01/11 06:44:12;;;;;;;6.53;2.50;;;;;;;10.81;76.21;100750.41;5066880;28;20088;-65
2023/01/11 06:46:40;;;;;;;4.93;1.77;;;;;;;10.82;75.84;100753.91;5059083;28;20064;-67
2023/01/11 06:49:08;;;;;;;5.72;1.85;;;;;;;10.81;76.24;100766.53;5075620;28;20117;-67
2023/01/11 06:51:36;;;;;;;6.72;3.05;;;;;;;10.81;76.08;100771.91;5059126;28;20046;-67
2023/01/11 06:54:03;;;;;;;4.85;1.70;;;;;;;10.82;76.10;100768.19;5071339;28;20485;-67
2023/01/11 06:56:32;;;;;;;4.45;2.30;;;;;;;10.73;75.87;100761.47;5062035;28;20045;-67
2023/01/11 06:59:00;;;;;;;9.88;2.25;;;;;;;10.82;75.59;100789.69;5059236;28;20045;-67
2023/01/11 07:01:29;;;;;;;17.95;2.88;;;;;;;10.82;76.01;100775.41;5071630;28;20080;-67
2023/01/11 07:03:57;;;;;;;8.90;2.28;;;;;;;10.81;76.26;100768.41;5062480;28;20126;-69
2023/01/11 07:06:25;;;;;;;13.23;2.97;;;;;;;10.82;76.21;100773.56;5063281;28;20051;-67
2023/01/11 07:08:52;;;;;;;11.27;2.67;;;;;;;10.81;76.20;100773.78;5063457;28;20105;-67
2023/01/11 07:11:20;;;;;;;9.30;2.38;;;;;;;10.80;75.96;100783.72;5070778;28;20108;-68
2023/01/11 07:13:49;;;;;;;10.15;2.45;;;;;;;10.79;76.07;100779.38;5062060;28;20057;-67
2023/01/11 07:16:17;;;;;;;13.57;3.50;;;;;;;10.74;77.11;100800.72;5061473;28;20049;-68
2023/01/11 07:18:45;;;;;;;15.63;3.95;;;;;;;10.75;76.52;100816.63;5074015;28;20118;-70
2023/01/11 07:21:13;;;;;;;21.95;3.35;;;;;;;10.76;76.46;100825.53;5080936;28;21304;-70
2023/01/11 07:23:41;;;;;;;12.13;3.92;;;;;;;10.76;76.31;100833.59;5081164;28;20075;-69
2023/01/11 07:26:09;;;;;;;14.80;3.28;;;;;;;10.77;76.36;100816.41;5058900;28;20386;-70
2023/01/11 07:28:36;;;;;;;17.42;3.38;;;;;;;10.77;76.23;100829.84;5068043;28;20044;-70
2023/01/11 07:31:06;;;;;;;16.13;3.15;;;;;;;10.78;75.99;100815.38;5072477;28;20087;-69
2023/01/11 07:33:33;;;;;;;13.32;2.92;;;;;;;10.76;75.97;100825.53;5056802;28;20081;-70
2023/01/11 07:36:04;;;;;;;17.50;3.65;;;;;;;10.75;76.05;100823.88;5064995;28;20076;-66
2023/01/11 07:38:32;;;;;;;19.35;4.60;;;;;;;10.72;76.22;100838.59;5064778;28;20063;-69
2023/01/11 07:43:10;;;;;;;18.10;3.40;;;;;;;10.75;75.96;100854.28;5073361;28;20128;-67
2023/01/11 07:43:46;;;;;;;17.00;4.00;;;;;;;10.75;76.02;100838.16;5083523;28;20136;-68
2023/01/11 07:46:16;;;;;;;21.33;3.97;;;;;;;10.75;75.94;100848.06;5059563;28;20052;-72
2023/01/11 07:48:44;;;;;;;18.38;4.10;;;;;;;10.75;75.81;100859.66;5066809;28;20055;-68
2023/01/11 07:51:12;;;;;;;21.30;4.07;;;;;;;10.75;75.71;100866.91;5067053;28;20101;-70
2023/01/11 07:53:40;;;;;;;17.42;3.97;;;;;;;10.74;75.69;100860.69;5061954;28;20063;-72
2023/01/11 07:56:07;;;;;;;14.68;3.00;;;;;;;10.74;75.62;100867.94;5064113;28;20060;-70
2023/01/11 07:58:35;;;;;;;15.52;3.75;;;;;;;10.74;75.56;100865.25;5052995;28;20059;-70
2023/01/11 08:01:03;;;;;;;22.92;3.50;;;;;;;10.73;75.57;100871.66;5059953;28;20071;-71
2023/01/11 08:03:32;;;;;;;19.40;4.00;;;;;;;10.73;75.30;100877.03;5063131;28;20055;-68
2023/01/11 08:06:00;;;;;;;15.02;2.70;;;;;;;10.71;75.49;100887.19;5068043;28;20101;-69
2023/01/11 08:08:28;;;;;;;23.52;6.03;;;;;;;10.71;75.40;100869.19;5061222;28;20046;-69
2023/01/11 08:16:23;;;;;;;23.48;5.25;;;;;;;10.69;75.55;100900.03;5059042;28;20494;-68
2023/01/11 08:18:52;;;;;;;18.20;4.25;;;;;;;10.68;75.28;100917.22;5058020;28;20051;-68
2023/01/11 08:21:21;;;;;;;17.85;3.78;;;;;;;10.61;75.19;100916.44;5063680;28;20049;-69
2023/01/11 08:23:48;;;;;;;16.15;3.67;;;;;;;10.68;75.15;100936.03;5061540;28;20049;-69
2023/01/11 08:26:16;;;;;;;16.63;3.38;;;;;;;10.66;75.24;100935.41;5039145;28;20506;-67
2023/01/11 08:28:45;;;;;;;13.45;3.10;;;;;;;10.68;74.78;100950.28;5059228;28;20049;-68
2023/01/11 08:31:12;;;;;;;15.75;3.70;;;;;;;10.67;74.67;100953.19;5061694;28;20041;-68
2023/01/11 08:33:40;;;;;;;24.10;4.70;;;;;;;10.66;74.44;100964.97;5061384;28;20041;-68
2023/01/11 08:36:12;;;;;;;21.35;5.18;;;;;;;10.65;74.59;100974.91;5050514;28;21069;-68
2023/01/11 08:38:40;;;;;;;19.38;3.60;;;;;;;10.65;74.45;100969.53;5056079;28;20124;-69
2023/01/11 08:41:09;;;;;;;23.23;4.35;;;;;;;10.61;74.44;100976.41;5066341;28;20104;-69
2023/01/11 08:43:37;;;;;;;11.88;4.65;;;;;;;10.62;74.31;100974.53;5059671;28;20045;-68
2023/01/11 08:46:05;;;;;;;18.42;3.20;;;;;;;10.62;74.44;100977.22;5054698;28;20085;-69
2023/01/11 08:48:33;;;;;;;19.48;3.25;;;;;;;10.61;74.34;100975.56;5057020;28;20063;-69
2023/01/11 08:51:01;;;;;;;19.48;4.40;;;;;;;10.61;74.22;100976.41;5060737;28;20087;-69
2023/01/11 08:53:30;;;;;;;20.98;3.70;;;;;;;10.61;74.00;100989.00;5066788;28;20049;-69
2023/01/11 08:55:58;;;;;;;18.05;3.97;;;;;;;10.59;74.07;100986.53;5061350;28;20071;-68
2023/01/11 08:58:26;;;;;;;13.82;2.95;;;;;;;10.59;74.13;100999.16;5074793;28;20049;-69
2023/01/11 09:00:56;;;;;;;19.55;2.95;;;;;;;10.58;74.12;100998.31;5061545;28;20049;-66
2023/01/11 09:03:24;;;;;;;16.20;3.78;;;;;;;10.64;74.10;101004.69;5055723;28;20083;-68
2023/01/11 09:05:52;;;;;;;12.15;4.22;;;;;;;10.74;73.86;100995.09;5064111;28;20041;-68
2023/01/11 09:08:20;;;;;;;13.80;3.55;;;;;;;10.90;73.10;101007.19;5059252;28;20130;-68
2023/01/11 09:10:49;;;;;;;13.38;3.05;;;;;;;11.04;72.47;101006.00;5062534;28;20067;-68
2023/01/11 09:13:17;;;;;;;14.73;2.72;;;;;;;11.21;71.77;101006.28;5060287;28;20120;-68
2023/01/11 09:15:45;;;;;;;14.32;3.67;;;;;;;11.38;70.98;100999.25;5061346;28;20050;-68
2023/01/11 09:18:13;;;;;;;21.13;3.38;;;;;;;11.53;70.28;101004.28;5060637;28;20052;-67
2023/01/11 09:20:41;;;;;;;12.85;3.75;;;;;;;11.68;69.50;101004.72;5062908;28;20100;-68
2023/01/11 09:23:09;;;;;;;12.15;3.75;;;;;;;11.82;68.72;101001.91;5059657;28;20095;-68
2023/01/11 09:25:36;;;;;;;12.10;3.85;;;;;;;11.99;68.51;101014.53;5064426;28;20083;-68
2023/01/11 09:28:05;;;;;;;17.63;3.15;;;;;;;12.11;67.65;101022.66;5066848;28;20408;-67
2023/01/11 09:30:33;;;;;;;13.48;3.42;;;;;;;12.22;67.29;101021.84;5062953;28;20128;-68
2023/01/11 09:33:03;;;;;;;13.05;3.53;;;;;;;12.28;66.85;101026.34;5054283;28;20107;-68
2023/01/11 09:35:31;;;;;;;17.25;3.58;;;;;;;12.35;66.76;101031.63;5069890;28;20060;-68
2023/01/11 09:38:00;;;;;;;14.57;3.15;;;;;;;12.27;66.42;101019.31;5065213;28;20057;-68
2023/01/11 09:40:38;;;;;;;15.93;2.65;;;;;;;12.31;66.61;101027.75;5045284;28;20045;-68
2023/01/11 09:43:11;;;;;;;12.45;2.80;;;;;;;12.39;66.22;101035.50;5060862;28;20073;-68
2023/01/11 09:45:45;;;;;;;13.45;4.15;;;;;;;12.38;66.48;101039.25;5047311;28;20136;-68
2023/01/11 09:48:27;;;;;;;19.90;4.18;;;;;;;12.38;66.30;101048.16;5056229;28;20067;-68
2023/01/11 09:50:56;;;;;;;19.08;4.57;;;;;;;12.39;66.29;101057.06;5057684;28;20498;-68
2023/01/11 09:53:30;;;;;;;11.02;2.75;;;;;;;12.41;65.87;101046.06;5060462;28;20052;-68
2023/01/11 09:56:01;;;;;;;19.30;3.17;;;;;;;12.43;65.85;101052.06;5058008;28;20045;-67
2023/01/11 09:58:47;;;;;;;11.73;4.15;;;;;;;12.44;65.84;101057.22;5063831;28;20040;-67
2023/01/11 10:01:20;;;;;;;16.50;5.80;;;;;;;12.26;66.54;101054.56;5058776;28;20506;-68
2023/01/11 10:04:40;;;;;;;9.35;2.38;;;;;;;12.23;66.46;101069.31;5057376;28;20049;-68
2023/01/11 10:07:44;;;;;;;15.30;4.05;;;;;;;12.06;66.66;101079.09;4978961;28;20053;-69
2023/01/11 10:10:22;;;;;;;21.30;4.40;;;;;;;11.84;67.14;101069.81;4975036;28;20134;-67
2023/01/11 10:13:16;;;;;;;;;;;;;;;11.65;67.92;101071.66;4977489;28;20062;-67
2023/01/11 10:16:20;;;;;;;13.10;2.88;;;;;;;11.52;68.75;101071.78;4971652;28;19922;-68
2023/01/11 10:19:15;;;;;;;9.93;2.40;;;;;;;11.42;69.31;101075.00;4985772;28;20058;-68
2023/01/11 10:22:10;;;;;;;16.80;3.58;;;;;;;11.34;69.53;101073.41;4975524;28;20051;-74
2023/01/11 10:24:42;;;;;;;11.83;3.50;;;;;;;11.28;69.63;101073.47;4976868;28;20084;-68
2023/01/11 10:27:21;;;;;;;14.48;3.17;;;;;;;11.22;69.89;101066.28;4977396;28;20145;-68
2023/01/11 10:30:11;;;;;;;21.35;3.60;;;;;;;11.19;70.06;101074.78;4977107;28;20465;-68
2023/01/11 10:32:52;;;;;;;18.35;3.38;;;;;;;11.15;70.15;101071.72;4978501;28;20102;-68
2023/01/11 10:38:37;;;;;;;12.13;2.65;;;;;;;11.08;70.18;101071.78;4955303;28;20047;-68
2023/01/11 10:41:18;;;;;;;16.23;3.65;;;;;;;11.06;70.78;101079.22;5010904;28;20048;-68
2023/01/11 10:44:00;;;;;;;16.50;3.58;;;;;;;11.05;70.93;101076.75;5058775;28;20118;-68
2023/01/11 10:46:30;;;;;;;16.85;3.33;;;;;;;11.02;70.85;101082.59;5060205;28;20057;-67
2023/01/11 10:49:24;;;;;;;14.73;4.07;;;;;;;11.02;70.90;101082.59;5063740;28;20041;-68
2023/01/11 10:51:56;;;;;;;14.38;4.13;;;;;;;10.99;70.99;101075.78;5058720;28;20083;-67
2023/01/11 10:54:30;;;;;;;11.50;3.60;;;;;;;10.99;71.21;101074.94;5062060;28;20045;-68
2023/01/11 10:57:14;;;;;;;14.63;3.47;;;;;;;10.96;70.99;101076.22;5065412;28;20053;-68
2023/01/11 11:00:04;;;;;;;16.67;3.75;;;;;;;10.94;71.46;101066.72;5047011;28;20073;-67
2023/01/11 11:02:48;;;;;;;14.63;3.50;;;;;;;10.96;71.19;101078.06;5059062;28;20469;-67
2023/01/11 11:05:32;;;;;;;13.98;3.70;;;;;;;10.95;71.34;101071.88;5061105;28;20084;-68
2023/01/11 11:08:10;;;;;;;16.98;2.95;;;;;;;10.94;71.05;101067.53;5052195;28;20057;-67
2023/01/11 11:10:49;;;;;;;12.70;4.13;;;;;;;10.95;71.41;101071.88;5062947;28;20056;-66
2023/01/11 11:13:23;;;;;;;17.58;4.82;;;;;;;10.94;71.13;101064.03;5070240;28;20057;-67
2023/01/11 11:15:56;;;;;;;18.48;3.55;;;;;;;10.93;70.63;101068.59;5067169;28;20079;-67
2023/01/11 11:18:24;;;;;;;17.75;3.50;;;;;;;10.93;70.70;101070.44;5061050;28;20076;-68
2023/01/11 11:20:53;;;;;;;13.02;3.42;;;;;;;10.92;70.81;101077.69;5061773;28;20049;-66
2023/01/11 11:23:27;;;;;;;12.75;4.30;;;;;;;10.92;70.59;101083.06;5060818;28;20086;-66
2023/01/11 11:25:57;;;;;;;15.60;3.97;;;;;;;10.92;70.61;101085.75;5054050;28;20144;-66
2023/01/11 11:28:27;;;;;;;16.95;3.95;;;;;;;10.93;70.81;101082.03;5064190;28;20045;-66
2023/01/11 11:30:57;;;;;;;16.52;3.45;;;;;;;10.93;70.67;101081.19;5062122;28;20052;-67
2023/01/11 11:33:30;;;;;;;15.52;4.53;;;;;;;10.93;71.00;101073.13;5056275;28;20063;-67
2023/01/11 11:36:03;;;;;;;24.95;5.40;;;;;;;10.92;70.32;101079.56;5064392;28;20168;-67
2023/01/11 11:38:33;;;;;;;14.57;3.28;;;;;;;10.93;70.50;101081.19;5056943;28;20150;-67
2023/01/11 11:41:06;;;;;;;20.25;3.85;;;;;;;10.93;70.36;101087.41;5065039;28;20080;-67
2023/01/11 11:43:35;;;;;;;19.23;3.72;;;;;;;10.93;70.20;101092.78;5059177;28;20055;-66
2023/01/11 11:46:05;;;;;;;18.73;4.35;;;;;;;10.93;70.29;101090.09;5064035;28;20620;-67
2023/01/11 11:48:35;;;;;;;22.13;4.68;;;;;;;10.92;69.41;101096.50;5063580;28;20047;-66
2023/01/11 11:51:07;;;;;;;18.27;4.18;;;;;;;10.89;69.24;101091.56;5069019;28;20077;-66
2023/01/11 11:53:41;;;;;;;18.00;3.50;;;;;;;10.92;69.13;101096.50;5063679;28;20102;-67
2023/01/11 11:56:20;;;;;;;17.20;3.08;;;;;;;10.93;69.65;101092.78;4704114;28;10000446;-67
2023/01/11 11:58:49;;;;;;;14.60;4.03;;;;;;;10.96;69.30;101094.22;5057275;28;20107;-67
2023/01/11 12:01:24;;;;;;;16.42;3.92;;;;;;;10.96;69.14;101097.72;5051400;28;20159;-67
2023/01/11 12:03:55;;;;;;;17.33;3.08;;;;;;;10.96;69.25;101100.41;5057959;28;20055;-67